createdAt,value
2023-04-12T00:01:12.744Z,4
2023-04-12T00:03:43.555Z,4
2023-04-12T00:06:13.949Z,4
2023-04-12T00:08:47.162Z,4
2023-04-12T00:11:17.875Z,5
2023-04-12T00:13:48.964Z,4
2023-04-12T00:16:19.868Z,4
2023-04-12T00:18:50.625Z,4
2023-04-12T00:21:21.724Z,4
2023-04-12T00:23:52.183Z,4
2023-04-12T00:26:22.525Z,4
2023-04-12T00:28:52.792Z,4
2023-04-12T00:31:23.195Z,4
2023-04-12T00:33:55.363Z,4
2023-04-12T00:36:26.174Z,8
2023-04-12T00:38:57.081Z,4
2023-04-12T00:41:27.950Z,8
2023-04-12T00:43:59.130Z,4
2023-04-12T00:46:29.917Z,4
2023-04-12T00:48:59.099Z,6
2023-04-12T00:51:29.796Z,4
2023-04-12T00:54:00.393Z,4
2023-04-12T00:56:31.502Z,4
2023-04-12T00:59:01.818Z,4
2023-04-12T01:01:32.650Z,4
2023-04-12T01:04:02.909Z,4
2023-04-12T01:06:33.958Z,4
2023-04-12T01:09:05.135Z,4
2023-04-12T01:11:36.191Z,4
2023-04-12T01:14:06.786Z,4
2023-04-12T01:16:37.853Z,4
2023-04-12T01:19:08.498Z,4
2023-04-12T01:21:39.116Z,4
2023-04-12T01:24:10.250Z,4
2023-04-12T01:26:40.969Z,4
2023-04-12T01:29:11.771Z,4
2023-04-12T01:31:43.055Z,4
2023-04-12T01:34:13.883Z,4
2023-04-12T01:36:44.693Z,4
2023-04-12T01:39:15.572Z,4
2023-04-12T01:41:46.578Z,4
2023-04-12T01:44:16.958Z,4
2023-04-12T01:46:47.784Z,4
2023-04-12T01:49:18.325Z,4
2023-04-12T01:51:48.863Z,5
2023-04-12T01:54:19.467Z,4
2023-04-12T01:56:49.811Z,5
2023-04-12T01:59:20.958Z,4
2023-04-12T02:01:51.353Z,4
2023-04-12T02:04:22.006Z,5
2023-04-12T02:06:53.168Z,4
2023-04-12T02:09:24.040Z,4
2023-04-12T02:11:54.936Z,7
2023-04-12T02:14:25.781Z,4
2023-04-12T02:16:56.522Z,4
2023-04-12T02:19:26.808Z,4
2023-04-12T02:21:57.967Z,4
2023-04-12T02:24:27.996Z,4
2023-04-12T02:26:58.323Z,4
2023-04-12T02:29:29.233Z,7
2023-04-12T02:31:59.576Z,4
2023-04-12T02:34:30.545Z,4
2023-04-12T02:37:01.164Z,4
2023-04-12T02:39:31.659Z,4
2023-04-12T02:42:02.562Z,4
2023-04-12T02:44:33.349Z,4
2023-04-12T02:47:03.882Z,4
2023-04-12T02:49:34.400Z,4
2023-04-12T02:52:05.688Z,6
2023-04-12T02:54:36.540Z,4
2023-04-12T02:57:07.486Z,4
2023-04-12T02:59:38.701Z,4
2023-04-12T03:02:09.396Z,8
2023-04-12T03:04:40.562Z,4
2023-04-12T03:07:11.324Z,0
2023-04-12T03:09:42.283Z,0
2023-04-12T03:12:12.996Z,4
2023-04-12T03:14:44.048Z,0
2023-04-12T03:17:14.433Z,0
2023-04-12T03:19:45.560Z,1
2023-04-12T03:22:16.800Z,0
2023-04-12T03:24:47.929Z,2
2023-04-12T03:27:18.362Z,4
2023-04-12T03:29:49.216Z,2
2023-04-12T03:32:19.670Z,0
2023-04-12T03:34:50.501Z,0
2023-04-12T03:37:21.698Z,0
2023-04-12T03:39:52.925Z,0
2023-04-12T03:42:32.796Z,1
2023-04-12T03:44:54.638Z,0
2023-04-12T03:47:25.929Z,0
2023-04-12T03:50:10.069Z,0
2023-04-12T03:52:25.802Z,0
2023-04-12T03:54:57.478Z,0
2023-04-12T03:57:28.226Z,0
2023-04-12T03:59:59.106Z,0
2023-04-12T04:02:29.352Z,0
2023-04-12T04:05:00.067Z,0
2023-04-12T04:07:30.873Z,0
2023-04-12T04:10:01.733Z,0
2023-04-12T04:12:32.299Z,0
2023-04-12T04:15:02.784Z,0
2023-04-12T04:17:34.298Z,0
2023-04-12T04:20:05.024Z,0
2023-04-12T04:22:36.593Z,0
2023-04-12T04:25:07.609Z,0
2023-04-12T04:27:37.791Z,0
2023-04-12T04:30:08.881Z,0
2023-04-12T04:32:39.409Z,0
2023-04-12T04:35:10.424Z,0
2023-04-12T04:37:41.169Z,0
2023-04-12T04:40:12.801Z,0
2023-04-12T04:42:43.978Z,4
2023-04-12T04:45:14.678Z,0
2023-04-12T04:47:44.993Z,0
2023-04-12T04:50:15.725Z,4
2023-04-12T04:52:46.660Z,0
2023-04-12T04:55:17.242Z,0
2023-04-12T04:57:48.618Z,7
2023-04-12T05:00:19.176Z,8
2023-04-12T05:02:49.989Z,4
2023-04-12T05:05:20.393Z,4
2023-04-12T05:07:52.507Z,4
2023-04-12T05:10:23.117Z,4
2023-04-12T05:12:54.377Z,1
2023-04-12T05:15:25.054Z,4
2023-04-12T05:17:55.955Z,0
2023-04-12T05:20:26.637Z,4
2023-04-12T05:22:57.429Z,0
2023-04-12T05:25:28.226Z,0
2023-04-12T05:27:58.823Z,0
2023-04-12T05:30:29.757Z,0
2023-04-12T05:32:59.997Z,0
2023-04-12T05:35:30.856Z,0
2023-04-12T05:38:01.605Z,0
2023-04-12T05:40:31.867Z,0
2023-04-12T05:43:02.592Z,0
2023-04-12T05:45:33.055Z,8
2023-04-12T05:48:04.081Z,0
2023-04-12T05:50:34.969Z,0
2023-04-12T05:53:05.823Z,4
2023-04-12T05:55:38.034Z,2
2023-04-12T05:58:08.210Z,2
2023-04-12T06:00:46.131Z,0
2023-04-12T06:03:19.352Z,4
2023-04-12T06:06:01.954Z,12
2023-04-12T06:08:45.605Z,8
2023-04-12T06:11:25.151Z,2
2023-04-12T06:13:55.665Z,4
2023-04-12T06:19:18.413Z,4
2023-04-12T06:22:01.458Z,8
2023-04-12T06:24:45.221Z,5
2023-04-12T06:27:25.927Z,3
2023-04-12T06:32:46.703Z,8
2023-04-12T06:35:24.158Z,0
2023-04-12T06:37:55.246Z,0
2023-04-12T06:40:25.710Z,0
2023-04-12T06:43:02.476Z,5
2023-04-12T06:45:35.072Z,4
2023-04-12T06:48:09.119Z,3
2023-04-12T06:50:44.060Z,8
2023-04-12T06:53:19.971Z,1
2023-04-12T06:55:54.863Z,6
2023-04-12T06:58:27.750Z,2
2023-04-12T07:00:58.497Z,0
2023-04-12T07:03:28.709Z,0
2023-04-12T07:05:59.042Z,4
2023-04-12T07:08:30.251Z,0
2023-04-12T07:11:06.044Z,4
2023-04-12T07:13:29.903Z,0
2023-04-12T07:16:04.000Z,4
2023-04-12T07:18:35.340Z,0
2023-04-12T07:21:06.240Z,4
2023-04-12T07:23:36.346Z,4
2023-04-12T07:26:06.962Z,4
2023-04-12T07:28:37.334Z,4
2023-04-12T07:31:13.775Z,3
2023-04-12T07:33:44.251Z,0
2023-04-12T07:36:14.752Z,2
2023-04-12T07:38:45.180Z,4
2023-04-12T07:41:16.105Z,4
2023-04-12T07:43:46.594Z,4
2023-04-12T07:46:18.676Z,4
2023-04-12T07:48:52.590Z,4
2023-04-12T07:51:23.152Z,4
2023-04-12T07:56:32.381Z,4
2023-04-12T07:59:02.833Z,4
2023-04-12T08:01:33.334Z,4
2023-04-12T08:04:06.481Z,4
2023-04-12T08:06:37.656Z,4
2023-04-12T08:09:10.614Z,4
2023-04-12T08:11:42.069Z,4
2023-04-12T08:14:16.705Z,4
2023-04-12T08:16:47.472Z,4
2023-04-12T08:19:23.403Z,4
2023-04-12T08:21:55.047Z,4
2023-04-12T08:24:27.590Z,4
2023-04-12T08:26:58.138Z,4
2023-04-12T08:29:29.607Z,4
2023-04-12T08:32:00.189Z,4
2023-04-12T08:34:31.360Z,3
2023-04-12T08:37:01.876Z,4
2023-04-12T08:39:32.663Z,4
2023-04-12T08:42:07.117Z,4
2023-04-12T08:44:37.620Z,4
2023-04-12T08:47:08.316Z,4
2023-04-12T08:49:38.820Z,0
2023-04-12T08:52:09.185Z,4
2023-04-12T08:54:40.143Z,4
2023-04-12T08:57:12.300Z,4
2023-04-12T08:59:43.082Z,4
2023-04-12T09:02:16.844Z,4
2023-04-12T09:04:47.364Z,0
2023-04-12T09:07:17.821Z,4
2023-04-12T09:09:49.476Z,4
2023-04-12T09:12:19.641Z,1
2023-04-12T09:14:56.329Z,4
2023-04-12T09:17:27.739Z,0
2023-04-12T09:19:58.140Z,4
2023-04-12T09:22:29.224Z,4
2023-04-12T09:24:59.114Z,0
2023-04-12T09:27:32.575Z,0
2023-04-12T09:30:03.204Z,0
2023-04-12T09:32:33.851Z,4
2023-04-12T09:35:04.201Z,4
2023-04-12T09:37:35.249Z,3
2023-04-12T09:40:06.042Z,4
2023-04-12T09:42:37.583Z,4
2023-04-12T09:45:08.173Z,0
2023-04-12T09:47:39.971Z,1
2023-04-12T09:50:09.930Z,1
2023-04-12T09:52:43.061Z,4
2023-04-12T09:55:14.724Z,4
2023-04-12T09:57:45.159Z,9
2023-04-12T10:00:18.880Z,12
2023-04-12T10:02:51.105Z,4
2023-04-12T10:05:21.102Z,4
2023-04-12T10:07:50.912Z,4
2023-04-12T10:10:21.275Z,4
2023-04-12T10:12:55.731Z,4
2023-04-12T10:15:26.192Z,4
2023-04-12T10:17:57.076Z,4
2023-04-12T10:20:29.115Z,4
2023-04-12T10:23:01.017Z,4
2023-04-12T10:25:33.042Z,4
2023-04-12T10:28:09.134Z,1
2023-04-12T10:30:42.177Z,4
2023-04-12T10:33:15.223Z,1
2023-04-12T10:35:46.258Z,2
2023-04-12T10:38:18.238Z,2
2023-04-12T10:40:48.787Z,4
2023-04-12T10:43:20.816Z,4
2023-04-12T10:45:51.179Z,4
2023-04-12T10:48:22.023Z,4
2023-04-12T10:50:55.107Z,4
2023-04-12T10:53:25.600Z,4
2023-04-12T10:55:56.246Z,4
2023-04-12T10:58:26.929Z,1
2023-04-12T11:01:06.349Z,3
2023-04-12T11:06:26.829Z,0
2023-04-12T11:08:46.837Z,0
2023-04-12T11:11:18.198Z,1
2023-04-12T11:13:46.698Z,0
2023-04-12T11:16:21.171Z,4
2023-04-12T11:18:55.486Z,0
2023-04-12T11:21:25.672Z,0
2023-04-12T11:23:59.541Z,0
2023-04-12T11:26:30.178Z,3
2023-04-12T11:29:01.209Z,1
2023-04-12T11:31:31.652Z,4
2023-04-12T11:34:02.881Z,3
2023-04-12T11:36:34.871Z,0
2023-04-12T11:39:07.251Z,0
2023-04-12T11:41:38.152Z,0
2023-04-12T11:44:08.712Z,0
2023-04-12T11:46:39.501Z,0
2023-04-12T11:49:10.341Z,1
2023-04-12T11:51:40.892Z,0
2023-04-12T11:54:11.514Z,0
2023-04-12T11:56:42.278Z,0
2023-04-12T11:59:13.033Z,0
2023-04-12T12:01:44.781Z,0
2023-04-12T12:04:15.743Z,0
2023-04-12T12:06:46.950Z,0
2023-04-12T12:09:17.217Z,0
2023-04-12T12:11:48.068Z,0
2023-04-12T12:14:20.798Z,8
2023-04-12T12:16:51.439Z,5
2023-04-12T12:19:21.719Z,0
2023-04-12T12:21:53.051Z,0
2023-04-12T12:24:22.414Z,0
2023-04-12T12:26:54.870Z,0
2023-04-12T12:29:26.926Z,3
2023-04-12T12:31:57.862Z,0
2023-04-12T12:34:31.595Z,3
2023-04-12T12:37:02.041Z,0
2023-04-12T12:39:32.416Z,4
2023-04-12T12:42:03.506Z,0
2023-04-12T12:44:36.392Z,0
2023-04-12T12:47:13.792Z,0
2023-04-12T12:49:36.270Z,0
2023-04-12T12:52:07.465Z,0
2023-04-12T12:54:41.883Z,4
2023-04-12T12:57:13.833Z,4
2023-04-12T12:59:45.765Z,0
2023-04-12T13:02:17.317Z,0
2023-04-12T13:04:49.456Z,0
2023-04-12T13:07:23.025Z,4
2023-04-12T13:09:56.639Z,0
2023-04-12T13:12:27.440Z,0
2023-04-12T13:15:06.837Z,1
2023-04-12T13:17:29.257Z,1
2023-04-12T13:19:59.258Z,4
2023-04-12T13:22:30.502Z,4
2023-04-12T13:25:01.142Z,3
2023-04-12T13:27:33.139Z,4
2023-04-12T13:30:03.815Z,4
2023-04-12T13:32:37.115Z,8
2023-04-12T13:35:07.959Z,0
2023-04-12T13:37:38.937Z,8
2023-04-12T13:40:10.768Z,8
2023-04-12T13:42:41.593Z,4
2023-04-12T13:45:13.409Z,0
2023-04-12T13:47:44.716Z,8
2023-04-12T13:50:16.557Z,4
2023-04-12T13:52:47.397Z,4
2023-04-12T13:55:21.693Z,4
2023-04-12T13:57:52.839Z,0
2023-04-12T14:00:23.750Z,4
2023-04-12T14:02:52.742Z,3
2023-04-12T14:05:23.071Z,4
2023-04-12T14:07:53.727Z,0
2023-04-12T14:10:24.640Z,4
2023-04-12T14:12:55.142Z,4
2023-04-12T14:15:26.392Z,4
2023-04-12T14:17:57.175Z,6
2023-04-12T14:20:30.897Z,0
2023-04-12T14:23:06.465Z,0
2023-04-12T14:25:35.479Z,4
2023-04-12T14:30:50.067Z,0
2023-04-12T14:33:20.796Z,1
2023-04-12T14:35:52.005Z,0
2023-04-12T14:38:22.580Z,0
2023-04-12T14:40:52.208Z,0
2023-04-12T14:43:24.595Z,4
2023-04-12T14:45:56.149Z,3
2023-04-12T14:48:33.597Z,4
2023-04-12T14:51:17.948Z,0
2023-04-12T14:53:49.398Z,4
2023-04-12T14:56:22.478Z,4
2023-04-12T14:58:51.361Z,4
2023-04-12T15:01:22.461Z,0
2023-04-12T15:03:53.552Z,0
2023-04-12T15:06:27.973Z,0
2023-04-12T15:09:02.381Z,0
2023-04-12T15:11:34.854Z,4
2023-04-12T15:14:19.982Z,0
2023-04-12T15:16:54.571Z,0
2023-04-12T15:19:25.066Z,0
2023-04-12T15:21:55.589Z,4
2023-04-12T15:24:35.274Z,4
2023-04-12T15:27:07.903Z,4
2023-04-12T15:29:38.836Z,4
2023-04-12T15:32:09.387Z,0
2023-04-12T15:34:43.322Z,0
2023-04-12T15:37:17.975Z,0
2023-04-12T15:39:48.524Z,0
2023-04-12T15:42:21.155Z,0
2023-04-12T15:44:57.691Z,4
2023-04-12T15:47:26.751Z,0
2023-04-12T15:50:00.613Z,4
2023-04-12T15:52:31.133Z,0
2023-04-12T15:55:03.564Z,4
2023-04-12T15:57:34.191Z,2
2023-04-12T16:00:09.819Z,4
2023-04-12T16:02:41.243Z,0
2023-04-12T16:05:12.998Z,0
2023-04-12T16:07:46.567Z,0
2023-04-12T16:10:17.161Z,0
2023-04-12T16:12:48.645Z,0
2023-04-12T16:15:22.111Z,0
2023-04-12T16:17:53.264Z,4
2023-04-12T16:20:24.888Z,4
2023-04-12T16:23:00.876Z,4
2023-04-12T16:25:36.075Z,4
2023-04-12T16:28:08.532Z,0
2023-04-12T16:30:42.630Z,0
2023-04-12T16:33:14.693Z,0
2023-04-12T16:35:46.580Z,4
2023-04-12T16:38:17.815Z,4
2023-04-12T16:40:47.580Z,4
2023-04-12T16:43:18.508Z,8
2023-04-12T16:45:49.397Z,24
2023-04-12T16:48:19.903Z,36
2023-04-12T16:50:51.360Z,52
2023-04-12T16:53:21.748Z,52
2023-04-12T16:55:52.051Z,34
2023-04-12T16:58:26.558Z,28
2023-04-12T17:00:57.279Z,20
2023-04-12T17:03:32.251Z,12
2023-04-12T17:06:02.768Z,12
2023-04-12T17:08:35.971Z,4
2023-04-12T17:11:06.711Z,8
2023-04-12T17:13:37.775Z,1
2023-04-12T17:16:06.942Z,4
2023-04-12T17:18:37.810Z,4
2023-04-12T17:21:06.829Z,4
2023-04-12T17:23:38.559Z,4
2023-04-12T17:26:08.567Z,8
2023-04-12T17:28:38.787Z,12
2023-04-12T17:31:08.870Z,4
2023-04-12T17:33:40.149Z,4
2023-04-12T17:36:11.744Z,4
2023-04-12T17:38:40.677Z,4
2023-04-12T17:41:11.131Z,4
2023-04-12T17:43:41.529Z,0
2023-04-12T17:46:12.025Z,4
2023-04-12T17:48:47.912Z,4
2023-04-12T17:53:59.992Z,4
2023-04-12T17:56:36.395Z,8
2023-04-12T17:59:05.287Z,8
2023-04-12T18:01:37.100Z,8
2023-04-12T18:04:07.429Z,8
2023-04-12T18:06:37.502Z,16
2023-04-12T18:09:11.130Z,28
2023-04-12T18:11:44.270Z,22
2023-04-12T18:14:15.809Z,16
2023-04-12T18:16:47.071Z,16
2023-04-12T18:19:18.416Z,8
2023-04-12T18:21:58.113Z,8
2023-04-12T18:27:16.958Z,20
2023-04-12T18:32:26.571Z,28
2023-04-12T18:34:59.859Z,32
2023-04-12T18:37:30.100Z,36
2023-04-12T18:40:00.507Z,32
2023-04-12T18:42:29.778Z,33
2023-04-12T18:45:00.368Z,32
2023-04-12T18:47:30.561Z,32
2023-04-12T18:50:01.033Z,33
2023-04-12T18:52:32.840Z,32
2023-04-12T18:55:04.353Z,32
2023-04-12T18:57:33.522Z,28
2023-04-12T19:00:03.431Z,29
2023-04-12T19:02:35.008Z,32
2023-04-12T19:05:09.231Z,36
2023-04-12T19:07:43.261Z,32
2023-04-12T19:10:15.594Z,32
2023-04-12T19:12:47.030Z,36
2023-04-12T19:15:19.519Z,36
2023-04-12T19:17:51.365Z,32
2023-04-12T19:20:26.234Z,36
2023-04-12T19:23:04.629Z,32
2023-04-12T19:25:46.705Z,33
2023-04-12T19:28:18.897Z,36
2023-04-12T19:30:58.656Z,32
2023-04-12T19:33:28.706Z,32
2023-04-12T19:35:58.720Z,36
2023-04-12T19:38:28.936Z,36
2023-04-12T19:40:59.287Z,36
2023-04-12T19:43:30.149Z,34
2023-04-12T19:46:04.208Z,36
2023-04-12T19:48:43.574Z,36
2023-04-12T19:51:15.472Z,36
2023-04-12T19:53:45.555Z,36
2023-04-12T19:56:19.951Z,36
2023-04-12T19:58:51.800Z,38
2023-04-12T20:01:23.366Z,40
2023-04-12T20:03:53.105Z,37
2023-04-12T20:06:23.698Z,39
2023-04-12T20:08:54.125Z,37
2023-04-12T20:11:31.756Z,36
2023-04-12T20:14:05.714Z,32
2023-04-12T20:16:36.797Z,32
2023-04-12T20:19:07.189Z,36
2023-04-12T20:21:37.678Z,36
2023-04-12T20:24:13.342Z,32
2023-04-12T20:26:43.908Z,32
2023-04-12T20:29:14.262Z,33
2023-04-12T20:31:49.849Z,32
2023-04-12T20:34:21.013Z,32
2023-04-12T20:36:51.383Z,36
2023-04-12T20:39:21.550Z,32
2023-04-12T20:42:05.605Z,28
2023-04-12T20:44:36.044Z,23
2023-04-12T20:47:07.272Z,24
2023-04-12T20:49:37.699Z,27
2023-04-12T20:52:09.091Z,28
2023-04-12T20:54:39.610Z,24
2023-04-12T20:57:10.590Z,28
2023-04-12T20:59:41.469Z,28
2023-04-12T21:02:11.641Z,28
2023-04-12T21:04:45.354Z,28
2023-04-12T21:07:15.335Z,28
2023-04-12T21:09:48.524Z,28
2023-04-12T21:12:20.572Z,28
2023-04-12T21:14:51.381Z,28
2023-04-12T21:17:23.328Z,26
2023-04-12T21:19:53.852Z,29
2023-04-12T21:22:25.287Z,28
2023-04-12T21:24:55.575Z,32
2023-04-12T21:27:32.102Z,32
2023-04-12T21:30:02.376Z,32
2023-04-12T21:32:32.738Z,31
2023-04-12T21:35:09.601Z,28
2023-04-12T21:37:42.185Z,28
2023-04-12T21:40:12.862Z,28
2023-04-12T21:42:43.321Z,24
2023-04-12T21:45:24.797Z,24
2023-04-12T21:47:55.467Z,24
2023-04-12T21:50:26.310Z,27
2023-04-12T21:52:55.153Z,25
2023-04-12T21:55:25.806Z,27
2023-04-12T21:58:03.019Z,25
2023-04-12T22:00:33.483Z,25
2023-04-12T22:03:03.676Z,28
2023-04-12T22:05:34.577Z,28
2023-04-12T22:08:05.332Z,31
2023-04-12T22:10:35.658Z,32
2023-04-12T22:13:05.985Z,32
2023-04-12T22:15:36.512Z,31
2023-04-12T22:18:11.157Z,29
2023-04-12T22:20:41.632Z,28
2023-04-12T22:23:12.361Z,29
2023-04-12T22:25:43.093Z,28
2023-04-12T22:28:13.566Z,28
2023-04-12T22:30:47.417Z,28
2023-04-12T22:33:17.707Z,32
2023-04-12T22:35:50.182Z,28
2023-04-12T22:38:20.389Z,28
2023-04-12T22:40:50.807Z,28
2023-04-12T22:43:26.655Z,30
2023-04-12T22:46:06.271Z,32
2023-04-12T22:48:36.819Z,32
2023-04-12T22:51:06.555Z,32
2023-04-12T22:53:37.062Z,32
2023-04-12T22:56:07.421Z,32
2023-04-12T22:58:38.672Z,32
2023-04-12T23:01:09.034Z,32
2023-04-12T23:03:39.712Z,31
2023-04-12T23:06:10.076Z,28
2023-04-12T23:08:41.721Z,30
2023-04-12T23:11:14.833Z,28
2023-04-12T23:13:47.537Z,29
2023-04-12T23:16:17.977Z,32
2023-04-12T23:18:48.372Z,30
2023-04-12T23:21:20.539Z,30
2023-04-12T23:23:50.885Z,28
2023-04-12T23:28:58.487Z,32
2023-04-12T23:31:34.065Z,32
2023-04-12T23:34:04.528Z,32
2023-04-12T23:36:35.027Z,32
2023-04-12T23:39:12.594Z,28
2023-04-12T23:41:48.828Z,28
2023-04-12T23:44:20.460Z,29
2023-04-12T23:46:49.595Z,28
2023-04-12T23:49:20.499Z,32
2023-04-12T23:51:50.996Z,28
2023-04-12T23:54:24.485Z,28
2023-04-12T23:56:54.685Z,28
2023-04-12T23:59:27.724Z,28
